PWSweather.com
Personal Weather Stations
Station Observations
SD92115WX
El Cerrito Stoneybluff, San Diego, CA 92115

El Cerrito StoneybluffSan Diego, CA 92115

Lat: 32.754096, Lon: -117.066705

Elevation: 420

Station Type: Davis Vantage Vue

http://stoneybluff.com

High Low Average
Temperature 61.7°F16.5°C 53.4°F11.9°C 57.4°F14.1°C
Dew Point 58.1°F14.5°C 51.8°F11.0°C 55.6°F13.1°C
Winds 10.3 mph 16.6 kmh Calm Calm 3.0 mph SSW4.8 kmh SSW
Wind Gusts 17.0 mph27.4 kmh -- 6.0 mph9.7 kmh
Humidity 96% 86% 94%
Pressure 30.06 in1017.9 mb 29.91 in1012.9 mb -
Precipitation 0.17 in4.3 mm - -
Hour Temp Dew Point Humidity Winds Wind Gusts Pressure Precip Precip Rate Daily Precip Total
12:00 AM 54.1°F12.3°C 52.2°F11.2°C 93% Calm Calm -- 29.96 in1014.6 mb 0.00 in0.0 mm 0.00 in0.0 mm 0.00 in0.0 mm
12:05 AM 54.3°F12.4°C 52.3°F11.3°C 93% Calm Calm -- 29.96 in1014.6 mb 0.00 in0.0 mm 0.00 in0.0 mm 0.00 in0.0 mm
12:10 AM 54.3°F12.4°C 52.3°F11.3°C 93% Calm Calm -- 29.96 in1014.6 mb 0.00 in0.0 mm 0.00 in0.0 mm 0.00 in0.0 mm
12:15 AM 54.1°F12.3°C 52.2°F11.2°C 93% Calm Calm -- 29.94 in1013.9 mb 0.00 in0.0 mm 0.00 in0.0 mm 0.00 in0.0 mm
12:20 AM 54.1°F12.3°C 52.2°F11.2°C 93% Calm Calm -- 29.94 in1013.9 mb 0.00 in0.0 mm 0.00 in0.0 mm 0.00 in0.0 mm
12:25 AM 54.0°F12.2°C 52.0°F11.1°C 93% Calm Calm -- 29.94 in1013.9 mb 0.00 in0.0 mm 0.00 in0.0 mm 0.00 in0.0 mm
12:30 AM 54.0°F12.2°C 52.0°F11.1°C 93% Calm Calm -- 29.95 in1014.2 mb 0.00 in0.0 mm 0.00 in0.0 mm 0.00 in0.0 mm
12:35 AM 54.0°F12.2°C 52.0°F11.1°C 93% Calm Calm -- 29.94 in1013.9 mb 0.00 in0.0 mm 0.00 in0.0 mm 0.00 in0.0 mm
12:40 AM 54.0°F12.2°C 52.0°F11.1°C 93% Calm Calm -- 29.94 in1013.9 mb 0.00 in0.0 mm 0.00 in0.0 mm 0.00 in0.0 mm
12:45 AM 53.8°F12.1°C 51.8°F11.0°C 93% Calm Calm -- 29.93 in1013.5 mb 0.00 in0.0 mm 0.00 in0.0 mm 0.00 in0.0 mm
12:50 AM 53.8°F12.1°C 52.2°F11.2°C 94% Calm Calm -- 29.94 in1013.9 mb 0.00 in0.0 mm 0.00 in0.0 mm 0.00 in0.0 mm
12:55 AM 53.8°F12.1°C 52.2°F11.2°C 94% Calm Calm -- 29.94 in1013.9 mb 0.00 in0.0 mm 0.00 in0.0 mm 0.00 in0.0 mm
01:00 AM 53.8°F12.1°C 52.2°F11.2°C 94% Calm Calm -- 29.93 in1013.5 mb 0.00 in0.0 mm 0.00 in0.0 mm 0.00 in0.0 mm
01:05 AM 53.6°F12.0°C 52.0°F11.1°C 94% Calm Calm -- 29.94 in1013.9 mb 0.00 in0.0 mm 0.00 in0.0 mm 0.00 in0.0 mm
01:10 AM 53.4°F11.9°C 51.8°F11.0°C 94% Calm Calm -- 29.94 in1013.9 mb 0.00 in0.0 mm 0.00 in0.0 mm 0.00 in0.0 mm
01:15 AM 53.4°F11.9°C 51.8°F11.0°C 94% Calm Calm -- 29.95 in1014.2 mb 0.00 in0.0 mm 0.00 in0.0 mm 0.00 in0.0 mm
01:20 AM 53.6°F12.0°C 52.0°F11.1°C 94% Calm Calm -- 29.95 in1014.2 mb 0.00 in0.0 mm 0.00 in0.0 mm 0.00 in0.0 mm
01:25 AM 53.8°F12.1°C 52.2°F11.2°C 94% Calm Calm -- 29.94 in1013.9 mb 0.00 in0.0 mm 0.00 in0.0 mm 0.00 in0.0 mm
01:30 AM 53.8°F12.1°C 52.2°F11.2°C 94% Calm Calm -- 29.93 in1013.5 mb 0.00 in0.0 mm 0.00 in0.0 mm 0.00 in0.0 mm
01:35 AM 53.8°F12.1°C 52.2°F11.2°C 94% Calm Calm -- 29.93 in1013.5 mb 0.00 in0.0 mm 0.00 in0.0 mm 0.00 in0.0 mm
01:40 AM 53.8°F12.1°C 52.2°F11.2°C 94% Calm Calm -- 29.93 in1013.5 mb 0.00 in0.0 mm 0.00 in0.0 mm 0.00 in0.0 mm
01:45 AM 53.8°F12.1°C 52.2°F11.2°C 94% Calm Calm -- 29.93 in1013.5 mb 0.00 in0.0 mm 0.00 in0.0 mm 0.00 in0.0 mm
01:50 AM 53.8°F12.1°C 52.2°F11.2°C 94% Calm Calm -- 29.93 in1013.5 mb 0.00 in0.0 mm 0.00 in0.0 mm 0.00 in0.0 mm
01:55 AM 53.6°F12.0°C 52.0°F11.1°C 94% Calm Calm -- 29.93 in1013.5 mb 0.00 in0.0 mm 0.00 in0.0 mm 0.00 in0.0 mm
02:00 AM 53.4°F11.9°C 51.8°F11.0°C 94% Calm Calm -- 29.93 in1013.5 mb 0.00 in0.0 mm 0.00 in0.0 mm 0.00 in0.0 mm
02:05 AM 53.6°F12.0°C 52.0°F11.1°C 94% Calm Calm -- 29.93 in1013.5 mb 0.00 in0.0 mm 0.00 in0.0 mm 0.00 in0.0 mm
02:10 AM 53.6°F12.0°C 52.0°F11.1°C 94% Calm Calm -- 29.92 in1013.2 mb 0.00 in0.0 mm 0.00 in0.0 mm 0.00 in0.0 mm
02:15 AM 53.4°F11.9°C 51.8°F11.0°C 94% Calm Calm -- 29.93 in1013.5 mb 0.00 in0.0 mm 0.00 in0.0 mm 0.00 in0.0 mm
02:20 AM 53.6°F12.0°C 52.0°F11.1°C 94% Calm Calm -- 29.93 in1013.5 mb 0.00 in0.0 mm 0.00 in0.0 mm 0.00 in0.0 mm
02:25 AM 53.8°F12.1°C 52.2°F11.2°C 94% Calm Calm -- 29.92 in1013.2 mb 0.00 in0.0 mm 0.00 in0.0 mm 0.00 in0.0 mm
02:30 AM 53.8°F12.1°C 52.2°F11.2°C 94% Calm Calm -- 29.93 in1013.5 mb 0.00 in0.0 mm 0.00 in0.0 mm 0.00 in0.0 mm
02:35 AM 53.8°F12.1°C 52.2°F11.2°C 94% 0.4 mph E0.6 kmh E 1.1 mph1.8 kmh 29.92 in1013.2 mb 0.00 in0.0 mm 0.00 in0.0 mm 0.00 in0.0 mm
02:40 AM 53.8°F12.1°C 52.2°F11.2°C 94% Calm Calm 1.1 mph1.8 kmh 29.91 in1012.9 mb 0.00 in0.0 mm 0.00 in0.0 mm 0.00 in0.0 mm
02:45 AM 53.8°F12.1°C 52.2°F11.2°C 94% Calm Calm -- 29.92 in1013.2 mb 0.00 in0.0 mm 0.00 in0.0 mm 0.00 in0.0 mm
02:50 AM 53.6°F12.0°C 52.0°F11.1°C 94% Calm Calm -- 29.91 in1012.9 mb 0.00 in0.0 mm 0.00 in0.0 mm 0.00 in0.0 mm
02:55 AM 53.6°F12.0°C 52.0°F11.1°C 94% Calm Calm -- 29.91 in1012.9 mb 0.00 in0.0 mm 0.00 in0.0 mm 0.00 in0.0 mm
03:00 AM 53.8°F12.1°C 52.2°F11.2°C 94% Calm Calm -- 29.91 in1012.9 mb 0.00 in0.0 mm 0.00 in0.0 mm 0.00 in0.0 mm
03:05 AM 53.8°F12.1°C 52.2°F11.2°C 94% Calm Calm -- 29.91 in1012.9 mb 0.00 in0.0 mm 0.00 in0.0 mm 0.00 in0.0 mm
03:10 AM 53.8°F12.1°C 52.2°F11.2°C 94% Calm Calm -- 29.92 in1013.2 mb 0.00 in0.0 mm 0.00 in0.0 mm 0.00 in0.0 mm
03:15 AM 54.0°F12.2°C 52.3°F11.3°C 94% Calm Calm -- 29.92 in1013.2 mb 0.00 in0.0 mm 0.00 in0.0 mm 0.00 in0.0 mm
03:20 AM 54.1°F12.3°C 52.5°F11.4°C 94% Calm Calm 1.1 mph1.8 kmh 29.92 in1013.2 mb 0.00 in0.0 mm 0.00 in0.0 mm 0.00 in0.0 mm
03:25 AM 54.3°F12.4°C 52.7°F11.5°C 94% 0.2 mph SW0.3 kmh SW 1.1 mph1.8 kmh 29.91 in1012.9 mb 0.00 in0.0 mm 0.00 in0.0 mm 0.00 in0.0 mm
03:30 AM 54.3°F12.4°C 52.7°F11.5°C 94% Calm Calm -- 29.91 in1012.9 mb 0.00 in0.0 mm 0.00 in0.0 mm 0.00 in0.0 mm
03:35 AM 54.3°F12.4°C 52.7°F11.5°C 94% 1.6 mph SSW2.6 kmh SSW 3.1 mph5.0 kmh 29.91 in1012.9 mb 0.00 in0.0 mm 0.00 in0.0 mm 0.00 in0.0 mm
03:40 AM 54.5°F12.5°C 52.9°F11.6°C 94% 2.2 mph SW3.5 kmh SW 4.3 mph6.9 kmh 29.92 in1013.2 mb 0.00 in0.0 mm 0.00 in0.0 mm 0.00 in0.0 mm
03:45 AM 54.7°F12.6°C 53.1°F11.7°C 94% 2.0 mph SW3.2 kmh SW 4.3 mph6.9 kmh 29.93 in1013.5 mb 0.00 in0.0 mm 0.00 in0.0 mm 0.00 in0.0 mm
03:50 AM 54.7°F12.6°C 53.1°F11.7°C 94% 1.6 mph WSW2.6 kmh WSW 5.4 mph8.7 kmh 29.94 in1013.9 mb 0.00 in0.0 mm 0.00 in0.0 mm 0.00 in0.0 mm
03:55 AM 54.9°F12.7°C 53.2°F11.8°C 94% 0.9 mph WNW1.4 kmh WNW 4.3 mph6.9 kmh 29.95 in1014.2 mb 0.00 in0.0 mm 0.00 in0.0 mm 0.00 in0.0 mm
04:00 AM 54.9°F12.7°C 53.2°F11.8°C 94% 2.2 mph WSW3.5 kmh WSW 4.3 mph6.9 kmh 29.96 in1014.6 mb 0.00 in0.0 mm 0.00 in0.0 mm 0.00 in0.0 mm
04:05 AM 54.9°F12.7°C 53.2°F11.8°C 94% 0.9 mph SW1.4 kmh SW 3.1 mph5.0 kmh 29.95 in1014.2 mb 0.00 in0.0 mm 0.00 in0.0 mm 0.00 in0.0 mm
04:10 AM 55.0°F12.8°C 53.4°F11.9°C 94% 0.2 mph NW0.3 kmh NW 1.1 mph1.8 kmh 29.94 in1013.9 mb 0.00 in0.0 mm 0.00 in0.0 mm 0.00 in0.0 mm
04:15 AM 55.0°F12.8°C 53.4°F11.9°C 94% Calm Calm 1.1 mph1.8 kmh 29.95 in1014.2 mb 0.00 in0.0 mm 0.00 in0.0 mm 0.00 in0.0 mm
04:20 AM 55.2°F12.9°C 53.8°F12.1°C 95% 2.9 mph SW4.7 kmh SW 6.3 mph10.1 kmh 29.95 in1014.2 mb 0.00 in0.0 mm 0.00 in0.0 mm 0.00 in0.0 mm
04:25 AM 55.2°F12.9°C 53.8°F12.1°C 95% 2.7 mph W4.3 kmh W 4.3 mph6.9 kmh 29.96 in1014.6 mb 0.00 in0.0 mm 0.00 in0.0 mm 0.00 in0.0 mm
04:30 AM 55.4°F13.0°C 54.0°F12.2°C 95% 3.8 mph WSW6.1 kmh WSW 6.3 mph10.1 kmh 29.96 in1014.6 mb 0.00 in0.0 mm 0.00 in0.0 mm 0.00 in0.0 mm
04:35 AM 55.4°F13.0°C 54.0°F12.2°C 95% 0.7 mph SSW1.1 kmh SSW 4.3 mph6.9 kmh 29.96 in1014.6 mb 0.00 in0.0 mm 0.00 in0.0 mm 0.00 in0.0 mm
04:40 AM 55.4°F13.0°C 54.0°F12.2°C 95% 1.3 mph S2.1 kmh S 3.1 mph5.0 kmh 29.96 in1014.6 mb 0.00 in0.0 mm 0.00 in0.0 mm 0.00 in0.0 mm
04:45 AM 55.6°F13.1°C 54.1°F12.3°C 95% 2.9 mph SSW4.7 kmh SSW 7.4 mph11.9 kmh 29.97 in1014.9 mb 0.00 in0.0 mm 0.00 in0.0 mm 0.00 in0.0 mm
04:50 AM 55.4°F13.0°C 54.0°F12.2°C 95% 2.2 mph SW3.5 kmh SW 7.4 mph11.9 kmh 29.98 in1015.2 mb 0.02 in0.5 mm 0.24 in6.1 mm 0.02 in0.5 mm
04:55 AM 55.6°F13.1°C 54.1°F12.3°C 95% 0.2 mph S0.3 kmh S 4.3 mph6.9 kmh 29.97 in1014.9 mb 0.04 in1.0 mm 0.24 in6.1 mm 0.04 in1.0 mm
05:00 AM 55.4°F13.0°C 54.0°F12.2°C 95% Calm Calm 2.0 mph3.2 kmh 29.97 in1014.9 mb 0.05 in1.3 mm 0.01 in0.3 mm 0.05 in1.3 mm
05:05 AM 55.6°F13.1°C 54.1°F12.3°C 95% 0.2 mph SE0.3 kmh SE 2.0 mph3.2 kmh 29.97 in1014.9 mb 0.05 in1.3 mm 0.00 in0.0 mm 0.05 in1.3 mm
05:10 AM 55.6°F13.1°C 54.1°F12.3°C 95% 0.9 mph SE1.4 kmh SE 3.1 mph5.0 kmh 29.97 in1014.9 mb 0.06 in1.5 mm 0.12 in3.0 mm 0.06 in1.5 mm
05:15 AM 55.6°F13.1°C 54.1°F12.3°C 95% Calm Calm -- 29.98 in1015.2 mb 0.06 in1.5 mm 0.00 in0.0 mm 0.06 in1.5 mm
05:20 AM 55.6°F13.1°C 54.1°F12.3°C 95% 0.4 mph SE0.6 kmh SE 3.1 mph5.0 kmh 29.97 in1014.9 mb 0.07 in1.8 mm 0.12 in3.0 mm 0.07 in1.8 mm
05:25 AM 55.6°F13.1°C 54.1°F12.3°C 95% 0.4 mph SSE0.6 kmh SSE 2.0 mph3.2 kmh 29.98 in1015.2 mb 0.07 in1.8 mm 0.00 in0.0 mm 0.07 in1.8 mm
05:30 AM 55.6°F13.1°C 54.1°F12.3°C 95% 1.1 mph SE1.8 kmh SE 4.3 mph6.9 kmh 29.98 in1015.2 mb 0.08 in2.0 mm 0.12 in3.0 mm 0.08 in2.0 mm
05:35 AM 55.6°F13.1°C 54.1°F12.3°C 95% 1.6 mph SE2.6 kmh SE 4.3 mph6.9 kmh 29.99 in1015.6 mb 0.08 in2.0 mm 0.00 in0.0 mm 0.08 in2.0 mm
05:40 AM 55.6°F13.1°C 54.1°F12.3°C 95% Calm Calm 2.0 mph3.2 kmh 29.98 in1015.2 mb 0.08 in2.0 mm 0.00 in0.0 mm 0.08 in2.0 mm
05:45 AM 55.6°F13.1°C 54.1°F12.3°C 95% 2.2 mph SW3.5 kmh SW 5.4 mph8.7 kmh 29.98 in1015.2 mb 0.08 in2.0 mm 0.00 in0.0 mm 0.08 in2.0 mm
05:50 AM 55.6°F13.1°C 54.1°F12.3°C 95% 0.2 mph S0.3 kmh S 3.1 mph5.0 kmh 29.98 in1015.2 mb 0.07 in1.8 mm 0.00 in0.0 mm 0.09 in2.3 mm
05:55 AM 55.6°F13.1°C 54.1°F12.3°C 95% 0.4 mph SE0.6 kmh SE 2.0 mph3.2 kmh 29.98 in1015.2 mb 0.05 in1.3 mm 0.00 in0.0 mm 0.09 in2.3 mm
06:00 AM 55.6°F13.1°C 54.1°F12.3°C 95% Calm Calm 2.0 mph3.2 kmh 29.98 in1015.2 mb 0.04 in1.0 mm 0.00 in0.0 mm 0.09 in2.3 mm
06:05 AM 55.6°F13.1°C 54.1°F12.3°C 95% 0.2 mph NE0.3 kmh NE 1.1 mph1.8 kmh 29.98 in1015.2 mb 0.04 in1.0 mm 0.00 in0.0 mm 0.10 in2.5 mm
06:10 AM 55.6°F13.1°C 54.5°F12.5°C 96% Calm Calm 1.1 mph1.8 kmh 29.99 in1015.6 mb 0.04 in1.0 mm 0.00 in0.0 mm 0.10 in2.5 mm
06:15 AM 55.6°F13.1°C 54.5°F12.5°C 96% Calm Calm -- 29.99 in1015.6 mb 0.04 in1.0 mm 0.00 in0.0 mm 0.10 in2.5 mm
06:20 AM 55.6°F13.1°C 54.5°F12.5°C 96% Calm Calm -- 29.99 in1015.6 mb 0.03 in0.8 mm 0.00 in0.0 mm 0.10 in2.5 mm
06:25 AM 55.6°F13.1°C 54.5°F12.5°C 96% Calm Calm 1.1 mph1.8 kmh 29.99 in1015.6 mb 0.03 in0.8 mm 0.00 in0.0 mm 0.10 in2.5 mm
06:30 AM 55.6°F13.1°C 54.5°F12.5°C 96% Calm Calm -- 29.99 in1015.6 mb 0.03 in0.8 mm 0.00 in0.0 mm 0.11 in2.8 mm
06:35 AM 55.6°F13.1°C 54.5°F12.5°C 96% 1.8 mph SSE2.9 kmh SSE 3.1 mph5.0 kmh 29.99 in1015.6 mb 0.03 in0.8 mm 0.00 in0.0 mm 0.11 in2.8 mm
06:40 AM 55.6°F13.1°C 54.5°F12.5°C 96% 0.4 mph SE0.6 kmh SE 5.4 mph8.7 kmh 29.99 in1015.6 mb 0.03 in0.8 mm 0.00 in0.0 mm 0.11 in2.8 mm
06:45 AM 55.6°F13.1°C 54.5°F12.5°C 96% Calm Calm 2.0 mph3.2 kmh 29.99 in1015.6 mb 0.03 in0.8 mm 0.00 in0.0 mm 0.11 in2.8 mm
06:50 AM 55.6°F13.1°C 54.5°F12.5°C 96% Calm Calm -- 29.99 in1015.6 mb 0.02 in0.5 mm 0.00 in0.0 mm 0.11 in2.8 mm
06:55 AM 55.6°F13.1°C 54.5°F12.5°C 96% Calm Calm 1.1 mph1.8 kmh 29.99 in1015.6 mb 0.02 in0.5 mm 0.00 in0.0 mm 0.11 in2.8 mm
07:00 AM 55.6°F13.1°C 54.5°F12.5°C 96% Calm Calm -- 29.99 in1015.6 mb 0.02 in0.5 mm 0.00 in0.0 mm 0.11 in2.8 mm
07:05 AM 55.4°F13.0°C 54.3°F12.4°C 96% Calm Calm -- 29.99 in1015.6 mb 0.02 in0.5 mm 0.00 in0.0 mm 0.11 in2.8 mm
07:10 AM 55.4°F13.0°C 54.3°F12.4°C 96% Calm Calm -- 29.99 in1015.6 mb 0.02 in0.5 mm 0.00 in0.0 mm 0.12 in3.0 mm
07:15 AM 55.2°F12.9°C 54.1°F12.3°C 96% Calm Calm 1.1 mph1.8 kmh 29.99 in1015.6 mb 0.02 in0.5 mm 0.00 in0.0 mm 0.12 in3.0 mm
07:20 AM 55.0°F12.8°C 54.0°F12.2°C 96% Calm Calm 2.0 mph3.2 kmh 30.00 in1015.9 mb 0.02 in0.5 mm 0.00 in0.0 mm 0.12 in3.0 mm
07:25 AM 55.0°F12.8°C 54.0°F12.2°C 96% 0.2 mph NE0.3 kmh NE 1.1 mph1.8 kmh 29.99 in1015.6 mb 0.02 in0.5 mm 0.00 in0.0 mm 0.12 in3.0 mm
07:30 AM 54.9°F12.7°C 53.8°F12.1°C 96% 0.2 mph NNW0.3 kmh NNW 2.0 mph3.2 kmh 29.98 in1015.2 mb 0.02 in0.5 mm 0.00 in0.0 mm 0.13 in3.3 mm
07:35 AM 54.9°F12.7°C 53.8°F12.1°C 96% Calm Calm 2.0 mph3.2 kmh 30.00 in1015.9 mb 0.02 in0.5 mm 0.00 in0.0 mm 0.13 in3.3 mm
07:40 AM 54.9°F12.7°C 53.8°F12.1°C 96% 0.4 mph ENE0.6 kmh ENE 1.1 mph1.8 kmh 29.99 in1015.6 mb 0.03 in0.8 mm 0.12 in3.0 mm 0.14 in3.6 mm
07:45 AM 54.9°F12.7°C 53.8°F12.1°C 96% Calm Calm 2.0 mph3.2 kmh 30.00 in1015.9 mb 0.03 in0.8 mm 0.00 in0.0 mm 0.14 in3.6 mm
07:50 AM 55.0°F12.8°C 54.0°F12.2°C 96% Calm Calm 1.1 mph1.8 kmh 30.00 in1015.9 mb 0.03 in0.8 mm 0.00 in0.0 mm 0.14 in3.6 mm
07:55 AM 55.0°F12.8°C 54.0°F12.2°C 96% Calm Calm 1.1 mph1.8 kmh 30.00 in1015.9 mb 0.03 in0.8 mm 0.00 in0.0 mm 0.14 in3.6 mm
08:00 AM 55.0°F12.8°C 54.0°F12.2°C 96% Calm Calm -- 30.00 in1015.9 mb 0.03 in0.8 mm 0.00 in0.0 mm 0.14 in3.6 mm
08:05 AM 55.2°F12.9°C 54.1°F12.3°C 96% 0.2 mph ENE0.3 kmh ENE 1.1 mph1.8 kmh 30.00 in1015.9 mb 0.03 in0.8 mm 0.00 in0.0 mm 0.14 in3.6 mm
08:10 AM 55.6°F13.1°C 54.5°F12.5°C 96% Calm Calm -- 30.01 in1016.3 mb 0.02 in0.5 mm 0.00 in0.0 mm 0.14 in3.6 mm
08:15 AM 55.8°F13.2°C 54.7°F12.6°C 96% 0.9 mph SE1.4 kmh SE 3.1 mph5.0 kmh 30.01 in1016.3 mb 0.02 in0.5 mm 0.00 in0.0 mm 0.14 in3.6 mm
08:20 AM 55.8°F13.2°C 54.7°F12.6°C 96% 0.4 mph SSE0.6 kmh SSE 3.1 mph5.0 kmh 30.01 in1016.3 mb 0.02 in0.5 mm 0.00 in0.0 mm 0.14 in3.6 mm
08:25 AM 55.8°F13.2°C 54.7°F12.6°C 96% Calm Calm 2.0 mph3.2 kmh 30.01 in1016.3 mb 0.02 in0.5 mm 0.00 in0.0 mm 0.14 in3.6 mm
08:30 AM 55.6°F13.1°C 54.1°F12.3°C 95% 2.2 mph SSW3.5 kmh SSW 5.4 mph8.7 kmh 30.01 in1016.3 mb 0.01 in0.3 mm 0.00 in0.0 mm 0.14 in3.6 mm
08:35 AM 55.6°F13.1°C 54.5°F12.5°C 96% 1.6 mph SSW2.6 kmh SSW 3.1 mph5.0 kmh 30.02 in1016.6 mb 0.01 in0.3 mm 0.00 in0.0 mm 0.14 in3.6 mm
08:40 AM 55.8°F13.2°C 54.7°F12.6°C 96% 2.5 mph SE4.0 kmh SE 5.4 mph8.7 kmh 30.01 in1016.3 mb 0.01 in0.3 mm 0.00 in0.0 mm 0.15 in3.8 mm
08:45 AM 55.8°F13.2°C 54.7°F12.6°C 96% 2.7 mph SE4.3 kmh SE 5.4 mph8.7 kmh 30.01 in1016.3 mb 0.01 in0.3 mm 0.00 in0.0 mm 0.15 in3.8 mm
08:50 AM 55.9°F13.3°C 54.9°F12.7°C 96% 1.3 mph SSE2.1 kmh SSE 6.3 mph10.1 kmh 30.02 in1016.6 mb 0.01 in0.3 mm 0.00 in0.0 mm 0.15 in3.8 mm
08:55 AM 56.1°F13.4°C 55.0°F12.8°C 96% 0.9 mph SE1.4 kmh SE 5.4 mph8.7 kmh 30.02 in1016.6 mb 0.01 in0.3 mm 0.00 in0.0 mm 0.15 in3.8 mm
09:00 AM 56.1°F13.4°C 54.7°F12.6°C 95% 1.6 mph SSW2.6 kmh SSW 5.4 mph8.7 kmh 30.02 in1016.6 mb 0.01 in0.3 mm 0.00 in0.0 mm 0.15 in3.8 mm
09:05 AM 56.5°F13.6°C 55.4°F13.0°C 96% 1.8 mph SSW2.9 kmh SSW 4.3 mph6.9 kmh 30.02 in1016.6 mb 0.01 in0.3 mm 0.00 in0.0 mm 0.15 in3.8 mm
09:10 AM 56.7°F13.7°C 55.2°F12.9°C 95% 3.6 mph S5.8 kmh S 6.3 mph10.1 kmh 30.02 in1016.6 mb 0.01 in0.3 mm 0.00 in0.0 mm 0.15 in3.8 mm
09:15 AM 56.7°F13.7°C 55.2°F12.9°C 95% 3.6 mph SE5.8 kmh SE 7.4 mph11.9 kmh 30.01 in1016.3 mb 0.01 in0.3 mm 0.00 in0.0 mm 0.15 in3.8 mm
09:20 AM 56.8°F13.8°C 55.4°F13.0°C 95% 1.6 mph S2.6 kmh S 6.3 mph10.1 kmh 30.01 in1016.3 mb 0.01 in0.3 mm 0.00 in0.0 mm 0.15 in3.8 mm
09:25 AM 57.0°F13.9°C 55.2°F12.9°C 94% 5.4 mph SSE8.7 kmh SSE 9.6 mph15.4 kmh 30.01 in1016.3 mb 0.01 in0.3 mm 0.00 in0.0 mm 0.15 in3.8 mm
09:30 AM 57.4°F14.1°C 55.6°F13.1°C 94% 3.1 mph SW5.0 kmh SW 8.5 mph13.7 kmh 30.01 in1016.3 mb 0.01 in0.3 mm 0.00 in0.0 mm 0.15 in3.8 mm
09:35 AM 57.6°F14.2°C 55.6°F13.1°C 93% 4.7 mph S7.6 kmh S 9.6 mph15.4 kmh 30.01 in1016.3 mb 0.01 in0.3 mm 0.00 in0.0 mm 0.15 in3.8 mm
09:40 AM 57.6°F14.2°C 55.2°F12.9°C 92% 8.1 mph SW13.0 kmh SW 17.0 mph27.4 kmh 30.01 in1016.3 mb 0.00 in0.0 mm 0.00 in0.0 mm 0.15 in3.8 mm
09:45 AM 57.6°F14.2°C 55.2°F12.9°C 92% 6.5 mph S10.5 kmh S 13.9 mph22.4 kmh 30.01 in1016.3 mb 0.00 in0.0 mm 0.00 in0.0 mm 0.15 in3.8 mm
09:50 AM 57.6°F14.2°C 55.0°F12.8°C 91% 7.6 mph SSW12.2 kmh SSW 12.8 mph20.6 kmh 30.01 in1016.3 mb 0.00 in0.0 mm 0.00 in0.0 mm 0.15 in3.8 mm
09:55 AM 57.4°F14.1°C 55.0°F12.8°C 92% 6.9 mph SE11.1 kmh SE 12.8 mph20.6 kmh 30.01 in1016.3 mb 0.00 in0.0 mm 0.00 in0.0 mm 0.15 in3.8 mm
10:00 AM 57.6°F14.2°C 55.6°F13.1°C 93% 7.2 mph SE11.6 kmh SE 13.9 mph22.4 kmh 30.01 in1016.3 mb 0.00 in0.0 mm 0.00 in0.0 mm 0.15 in3.8 mm
10:05 AM 57.4°F14.1°C 55.0°F12.8°C 92% 6.3 mph SE10.1 kmh SE 11.6 mph18.7 kmh 30.01 in1016.3 mb 0.00 in0.0 mm 0.00 in0.0 mm 0.15 in3.8 mm
10:10 AM 57.4°F14.1°C 55.4°F13.0°C 93% 5.4 mph SE8.7 kmh SE 10.5 mph16.9 kmh 30.01 in1016.3 mb 0.00 in0.0 mm 0.00 in0.0 mm 0.15 in3.8 mm
10:15 AM 57.6°F14.2°C 55.8°F13.2°C 94% 4.9 mph S7.9 kmh S 13.9 mph22.4 kmh 30.00 in1015.9 mb 0.00 in0.0 mm 0.00 in0.0 mm 0.15 in3.8 mm
10:20 AM 57.7°F14.3°C 55.9°F13.3°C 94% 2.7 mph SW4.3 kmh SW 12.8 mph20.6 kmh 30.00 in1015.9 mb 0.00 in0.0 mm 0.00 in0.0 mm 0.15 in3.8 mm
10:25 AM 57.7°F14.3°C 55.9°F13.3°C 94% 3.8 mph SSW6.1 kmh SSW 13.9 mph22.4 kmh 30.00 in1015.9 mb 0.00 in0.0 mm 0.00 in0.0 mm 0.15 in3.8 mm
10:30 AM 57.6°F14.2°C 55.6°F13.1°C 93% 5.8 mph SE9.3 kmh SE 12.8 mph20.6 kmh 30.00 in1015.9 mb 0.00 in0.0 mm 0.00 in0.0 mm 0.15 in3.8 mm
10:35 AM 57.6°F14.2°C 55.6°F13.1°C 93% 7.2 mph SE11.6 kmh SE 10.5 mph16.9 kmh 30.00 in1015.9 mb 0.00 in0.0 mm 0.00 in0.0 mm 0.15 in3.8 mm
10:40 AM 57.7°F14.3°C 55.9°F13.3°C 94% 3.6 mph SSW5.8 kmh SSW 10.5 mph16.9 kmh 30.00 in1015.9 mb 0.00 in0.0 mm 0.00 in0.0 mm 0.15 in3.8 mm
10:45 AM 58.5°F14.7°C 57.0°F13.9°C 95% 2.9 mph SE4.7 kmh SE 5.4 mph8.7 kmh 30.00 in1015.9 mb 0.00 in0.0 mm 0.00 in0.0 mm 0.15 in3.8 mm
10:50 AM 58.6°F14.8°C 56.8°F13.8°C 94% 3.6 mph SW5.8 kmh SW 7.4 mph11.9 kmh 30.00 in1015.9 mb 0.00 in0.0 mm 0.00 in0.0 mm 0.15 in3.8 mm
10:55 AM 58.5°F14.7°C 56.7°F13.7°C 94% 4.7 mph S7.6 kmh S 8.5 mph13.7 kmh 30.00 in1015.9 mb 0.01 in0.3 mm 0.12 in3.0 mm 0.16 in4.1 mm
11:00 AM 58.5°F14.7°C 56.7°F13.7°C 94% 2.9 mph SSE4.7 kmh SSE 8.5 mph13.7 kmh 30.00 in1015.9 mb 0.01 in0.3 mm 0.00 in0.0 mm 0.16 in4.1 mm
11:05 AM 58.3°F14.6°C 56.5°F13.6°C 94% 2.9 mph SW4.7 kmh SW 8.5 mph13.7 kmh 30.01 in1016.3 mb 0.01 in0.3 mm 0.00 in0.0 mm 0.16 in4.1 mm
11:10 AM 58.3°F14.6°C 56.3°F13.5°C 93% 5.1 mph S8.2 kmh S 8.5 mph13.7 kmh 30.01 in1016.3 mb 0.01 in0.3 mm 0.00 in0.0 mm 0.16 in4.1 mm
11:15 AM 58.5°F14.7°C 56.7°F13.7°C 94% 4.9 mph SSW7.9 kmh SSW 9.6 mph15.4 kmh 30.01 in1016.3 mb 0.01 in0.3 mm 0.00 in0.0 mm 0.16 in4.1 mm
11:20 AM 58.5°F14.7°C 56.7°F13.7°C 94% 6.0 mph SW9.7 kmh SW 9.6 mph15.4 kmh 30.01 in1016.3 mb 0.01 in0.3 mm 0.00 in0.0 mm 0.16 in4.1 mm
11:25 AM 58.5°F14.7°C 56.5°F13.6°C 93% 6.5 mph SW10.5 kmh SW 11.6 mph18.7 kmh 30.01 in1016.3 mb 0.01 in0.3 mm 0.00 in0.0 mm 0.16 in4.1 mm
11:30 AM 58.5°F14.7°C 56.7°F13.7°C 94% 5.6 mph SW9.0 kmh SW 9.6 mph15.4 kmh 30.01 in1016.3 mb 0.01 in0.3 mm 0.00 in0.0 mm 0.16 in4.1 mm
11:35 AM 58.5°F14.7°C 56.7°F13.7°C 94% 5.6 mph SW9.0 kmh SW 10.5 mph16.9 kmh 30.00 in1015.9 mb 0.01 in0.3 mm 0.00 in0.0 mm 0.16 in4.1 mm
11:40 AM 58.3°F14.6°C 56.5°F13.6°C 94% 5.6 mph SW9.0 kmh SW 8.5 mph13.7 kmh 30.00 in1015.9 mb 0.01 in0.3 mm 0.00 in0.0 mm 0.16 in4.1 mm
11:45 AM 58.5°F14.7°C 56.7°F13.7°C 94% 4.3 mph SW6.9 kmh SW 8.5 mph13.7 kmh 30.00 in1015.9 mb 0.01 in0.3 mm 0.00 in0.0 mm 0.16 in4.1 mm
11:50 AM 58.8°F14.9°C 57.4°F14.1°C 95% 2.2 mph SW3.5 kmh SW 6.3 mph10.1 kmh 30.00 in1015.9 mb 0.01 in0.3 mm 0.00 in0.0 mm 0.16 in4.1 mm
11:55 AM 58.6°F14.8°C 56.8°F13.8°C 94% 6.0 mph SW9.7 kmh SW 10.5 mph16.9 kmh 30.00 in1015.9 mb 0.00 in0.0 mm 0.00 in0.0 mm 0.16 in4.1 mm
12:00 PM 58.5°F14.7°C 56.7°F13.7°C 94% 7.8 mph SW12.6 kmh SW 10.5 mph16.9 kmh 30.00 in1015.9 mb 0.00 in0.0 mm 0.00 in0.0 mm 0.16 in4.1 mm
12:05 PM 58.5°F14.7°C 56.7°F13.7°C 94% 5.8 mph SW9.3 kmh SW 8.5 mph13.7 kmh 30.00 in1015.9 mb 0.00 in0.0 mm 0.00 in0.0 mm 0.16 in4.1 mm
12:10 PM 58.6°F14.8°C 56.8°F13.8°C 94% 5.1 mph SW8.2 kmh SW 8.5 mph13.7 kmh 30.00 in1015.9 mb 0.00 in0.0 mm 0.00 in0.0 mm 0.16 in4.1 mm
12:15 PM 58.6°F14.8°C 57.2°F14.0°C 95% 5.6 mph S9.0 kmh S 11.6 mph18.7 kmh 30.00 in1015.9 mb 0.00 in0.0 mm 0.00 in0.0 mm 0.16 in4.1 mm
12:20 PM 58.6°F14.8°C 57.2°F14.0°C 95% 5.4 mph SW8.7 kmh SW 7.4 mph11.9 kmh 29.99 in1015.6 mb 0.00 in0.0 mm 0.00 in0.0 mm 0.16 in4.1 mm
12:25 PM 58.6°F14.8°C 57.2°F14.0°C 95% 4.0 mph WSW6.4 kmh WSW 8.5 mph13.7 kmh 29.99 in1015.6 mb 0.00 in0.0 mm 0.00 in0.0 mm 0.16 in4.1 mm
12:30 PM 58.6°F14.8°C 57.2°F14.0°C 95% 5.4 mph WSW8.7 kmh WSW 9.6 mph15.4 kmh 29.99 in1015.6 mb 0.01 in0.3 mm 0.12 in3.0 mm 0.17 in4.3 mm
12:35 PM 58.6°F14.8°C 57.2°F14.0°C 95% 4.9 mph WSW7.9 kmh WSW 11.6 mph18.7 kmh 29.99 in1015.6 mb 0.01 in0.3 mm 0.00 in0.0 mm 0.17 in4.3 mm
12:40 PM 58.6°F14.8°C 56.8°F13.8°C 94% 7.2 mph WSW11.6 kmh WSW 10.5 mph16.9 kmh 29.99 in1015.6 mb 0.01 in0.3 mm 0.00 in0.0 mm 0.17 in4.3 mm
12:45 PM 58.6°F14.8°C 57.2°F14.0°C 95% 5.6 mph S9.0 kmh S 9.6 mph15.4 kmh 29.99 in1015.6 mb 0.01 in0.3 mm 0.00 in0.0 mm 0.17 in4.3 mm
12:50 PM 58.8°F14.9°C 57.4°F14.1°C 95% 5.8 mph S9.3 kmh S 9.6 mph15.4 kmh 29.98 in1015.2 mb 0.01 in0.3 mm 0.00 in0.0 mm 0.17 in4.3 mm
12:55 PM 58.8°F14.9°C 57.4°F14.1°C 95% 5.4 mph WSW8.7 kmh WSW 9.6 mph15.4 kmh 29.98 in1015.2 mb 0.01 in0.3 mm 0.00 in0.0 mm 0.17 in4.3 mm
01:00 PM 58.8°F14.9°C 57.4°F14.1°C 95% 5.8 mph SSW9.3 kmh SSW 10.5 mph16.9 kmh 29.98 in1015.2 mb 0.01 in0.3 mm 0.00 in0.0 mm 0.17 in4.3 mm
01:05 PM 58.6°F14.8°C 56.8°F13.8°C 94% 6.0 mph SW9.7 kmh SW 10.5 mph16.9 kmh 29.99 in1015.6 mb 0.01 in0.3 mm 0.00 in0.0 mm 0.17 in4.3 mm
01:10 PM 58.5°F14.7°C 56.7°F13.7°C 94% 7.8 mph SE12.6 kmh SE 14.8 mph23.8 kmh 29.98 in1015.2 mb 0.01 in0.3 mm 0.00 in0.0 mm 0.17 in4.3 mm
01:15 PM 58.6°F14.8°C 57.2°F14.0°C 95% 4.3 mph S6.9 kmh S 10.5 mph16.9 kmh 29.99 in1015.6 mb 0.01 in0.3 mm 0.00 in0.0 mm 0.17 in4.3 mm
01:20 PM 58.5°F14.7°C 56.7°F13.7°C 94% 4.3 mph SSW6.9 kmh SSW 9.6 mph15.4 kmh 29.99 in1015.6 mb 0.01 in0.3 mm 0.00 in0.0 mm 0.17 in4.3 mm
01:25 PM 58.6°F14.8°C 57.2°F14.0°C 95% 3.6 mph S5.8 kmh S 6.3 mph10.1 kmh 29.99 in1015.6 mb 0.01 in0.3 mm 0.00 in0.0 mm 0.17 in4.3 mm
01:30 PM 58.6°F14.8°C 56.8°F13.8°C 94% 4.0 mph SW6.4 kmh SW 8.5 mph13.7 kmh 29.98 in1015.2 mb 0.00 in0.0 mm 0.00 in0.0 mm 0.17 in4.3 mm
01:35 PM 58.6°F14.8°C 56.8°F13.8°C 94% 6.0 mph SW9.7 kmh SW 9.6 mph15.4 kmh 29.98 in1015.2 mb 0.00 in0.0 mm 0.00 in0.0 mm 0.17 in4.3 mm
01:40 PM 58.8°F14.9°C 57.4°F14.1°C 95% 4.9 mph WSW7.9 kmh WSW 10.5 mph16.9 kmh 29.98 in1015.2 mb 0.00 in0.0 mm 0.00 in0.0 mm 0.17 in4.3 mm
01:45 PM 58.8°F14.9°C 57.0°F13.9°C 94% 5.6 mph SW9.0 kmh SW 12.8 mph20.6 kmh 29.98 in1015.2 mb 0.00 in0.0 mm 0.00 in0.0 mm 0.17 in4.3 mm
01:50 PM 58.8°F14.9°C 57.0°F13.9°C 94% 6.0 mph SSW9.7 kmh SSW 11.6 mph18.7 kmh 29.98 in1015.2 mb 0.00 in0.0 mm 0.00 in0.0 mm 0.17 in4.3 mm
01:55 PM 59.0°F15.0°C 57.2°F14.0°C 94% 5.4 mph SSW8.7 kmh SSW 11.6 mph18.7 kmh 29.98 in1015.2 mb 0.00 in0.0 mm 0.00 in0.0 mm 0.17 in4.3 mm
02:00 PM 59.2°F15.1°C 57.4°F14.1°C 94% 3.1 mph SSW5.0 kmh SSW 10.5 mph16.9 kmh 29.98 in1015.2 mb 0.00 in0.0 mm 0.00 in0.0 mm 0.17 in4.3 mm
02:05 PM 59.4°F15.2°C 57.4°F14.1°C 93% 6.9 mph SE11.1 kmh SE 14.8 mph23.8 kmh 29.98 in1015.2 mb 0.00 in0.0 mm 0.00 in0.0 mm 0.17 in4.3 mm
02:10 PM 59.5°F15.3°C 57.7°F14.3°C 94% 3.8 mph WSW6.1 kmh WSW 11.6 mph18.7 kmh 29.98 in1015.2 mb 0.00 in0.0 mm 0.00 in0.0 mm 0.17 in4.3 mm
02:15 PM 59.9°F15.5°C 57.9°F14.4°C 93% 5.4 mph SSE8.7 kmh SSE 10.5 mph16.9 kmh 29.98 in1015.2 mb 0.00 in0.0 mm 0.00 in0.0 mm 0.17 in4.3 mm
02:20 PM 60.1°F15.6°C 57.7°F14.3°C 92% 10.3 mph SW16.6 kmh SW 13.9 mph22.4 kmh 29.98 in1015.2 mb 0.00 in0.0 mm 0.00 in0.0 mm 0.17 in4.3 mm
02:25 PM 60.3°F15.7°C 57.6°F14.2°C 91% 9.2 mph SSW14.8 kmh SSW 15.9 mph25.6 kmh 29.97 in1014.9 mb 0.00 in0.0 mm 0.00 in0.0 mm 0.17 in4.3 mm
02:30 PM 60.6°F15.9°C 57.9°F14.4°C 91% 8.1 mph SW13.0 kmh SW 15.9 mph25.6 kmh 29.98 in1015.2 mb 0.00 in0.0 mm 0.00 in0.0 mm 0.17 in4.3 mm
02:35 PM 60.6°F15.9°C 57.7°F14.3°C 90% 8.1 mph SW13.0 kmh SW 14.8 mph23.8 kmh 29.97 in1014.9 mb 0.00 in0.0 mm 0.00 in0.0 mm 0.17 in4.3 mm
02:40 PM 61.0°F16.1°C 57.7°F14.3°C 89% 7.6 mph SSW12.2 kmh SSW 15.9 mph25.6 kmh 29.98 in1015.2 mb 0.00 in0.0 mm 0.00 in0.0 mm 0.17 in4.3 mm
02:45 PM 61.2°F16.2°C 57.9°F14.4°C 89% 7.8 mph SW12.6 kmh SW 14.8 mph23.8 kmh 29.98 in1015.2 mb 0.00 in0.0 mm 0.00 in0.0 mm 0.17 in4.3 mm
02:50 PM 61.5°F16.4°C 57.9°F14.4°C 88% 6.0 mph SW9.7 kmh SW 12.8 mph20.6 kmh 29.98 in1015.2 mb 0.00 in0.0 mm 0.00 in0.0 mm 0.17 in4.3 mm
02:55 PM 61.5°F16.4°C 57.6°F14.2°C 87% 6.9 mph SW11.1 kmh SW 11.6 mph18.7 kmh 29.98 in1015.2 mb 0.00 in0.0 mm 0.00 in0.0 mm 0.17 in4.3 mm
03:00 PM 61.7°F16.5°C 58.1°F14.5°C 88% 6.7 mph SW10.8 kmh SW 11.6 mph18.7 kmh 29.98 in1015.2 mb 0.00 in0.0 mm 0.00 in0.0 mm 0.17 in4.3 mm
03:05 PM 61.5°F16.4°C 57.6°F14.2°C 87% 6.0 mph SSE9.7 kmh SSE 11.6 mph18.7 kmh 29.98 in1015.2 mb 0.00 in0.0 mm 0.00 in0.0 mm 0.17 in4.3 mm
03:10 PM 61.5°F16.4°C 57.6°F14.2°C 87% 6.3 mph SSW10.1 kmh SSW 9.6 mph15.4 kmh 29.98 in1015.2 mb 0.00 in0.0 mm 0.00 in0.0 mm 0.17 in4.3 mm
03:15 PM 61.5°F16.4°C 57.6°F14.2°C 87% 6.5 mph SSE10.5 kmh SSE 13.9 mph22.4 kmh 29.98 in1015.2 mb 0.00 in0.0 mm 0.00 in0.0 mm 0.17 in4.3 mm
03:20 PM 61.5°F16.4°C 57.6°F14.2°C 87% 6.3 mph SW10.1 kmh SW 11.6 mph18.7 kmh 29.98 in1015.2 mb 0.00 in0.0 mm 0.00 in0.0 mm 0.17 in4.3 mm
03:25 PM 61.5°F16.4°C 57.6°F14.2°C 87% 4.7 mph SW7.6 kmh SW 11.6 mph18.7 kmh 29.98 in1015.2 mb 0.00 in0.0 mm 0.00 in0.0 mm 0.17 in4.3 mm
03:30 PM 61.3°F16.3°C 57.4°F14.1°C 87% 5.8 mph S9.3 kmh S 9.6 mph15.4 kmh 29.98 in1015.2 mb 0.00 in0.0 mm 0.00 in0.0 mm 0.17 in4.3 mm
03:35 PM 61.3°F16.3°C 57.4°F14.1°C 87% 6.0 mph SW9.7 kmh SW 10.5 mph16.9 kmh 29.98 in1015.2 mb 0.00 in0.0 mm 0.00 in0.0 mm 0.17 in4.3 mm
03:40 PM 61.3°F16.3°C 57.2°F14.0°C 86% 6.3 mph SW10.1 kmh SW 12.8 mph20.6 kmh 29.98 in1015.2 mb 0.00 in0.0 mm 0.00 in0.0 mm 0.17 in4.3 mm
03:45 PM 61.3°F16.3°C 57.2°F14.0°C 86% 4.5 mph SW7.2 kmh SW 10.5 mph16.9 kmh 29.98 in1015.2 mb 0.00 in0.0 mm 0.00 in0.0 mm 0.17 in4.3 mm
03:50 PM 61.2°F16.2°C 57.0°F13.9°C 86% 5.4 mph SSW8.7 kmh SSW 9.6 mph15.4 kmh 29.99 in1015.6 mb 0.00 in0.0 mm 0.00 in0.0 mm 0.17 in4.3 mm
03:55 PM 61.2°F16.2°C 57.2°F14.0°C 87% 4.5 mph SW7.2 kmh SW 8.5 mph13.7 kmh 29.98 in1015.2 mb 0.00 in0.0 mm 0.00 in0.0 mm 0.17 in4.3 mm
04:00 PM 61.2°F16.2°C 57.2°F14.0°C 87% 3.1 mph SW5.0 kmh SW 7.4 mph11.9 kmh 29.98 in1015.2 mb 0.00 in0.0 mm 0.00 in0.0 mm 0.17 in4.3 mm
04:05 PM 61.2°F16.2°C 57.2°F14.0°C 87% 4.9 mph SSW7.9 kmh SSW 7.4 mph11.9 kmh 29.99 in1015.6 mb 0.00 in0.0 mm 0.00 in0.0 mm 0.17 in4.3 mm
04:10 PM 61.2°F16.2°C 57.2°F14.0°C 87% 4.0 mph S6.4 kmh S 8.5 mph13.7 kmh 29.99 in1015.6 mb 0.00 in0.0 mm 0.00 in0.0 mm 0.17 in4.3 mm
04:15 PM 61.2°F16.2°C 57.2°F14.0°C 87% 5.6 mph SW9.0 kmh SW 11.6 mph18.7 kmh 29.98 in1015.2 mb 0.00 in0.0 mm 0.00 in0.0 mm 0.17 in4.3 mm
04:20 PM 61.2°F16.2°C 57.2°F14.0°C 87% 3.1 mph SW5.0 kmh SW 6.3 mph10.1 kmh 29.99 in1015.6 mb 0.00 in0.0 mm 0.00 in0.0 mm 0.17 in4.3 mm
04:25 PM 61.2°F16.2°C 57.2°F14.0°C 87% 2.9 mph SW4.7 kmh SW 6.3 mph10.1 kmh 29.99 in1015.6 mb 0.00 in0.0 mm 0.00 in0.0 mm 0.17 in4.3 mm
04:30 PM 61.2°F16.2°C 57.6°F14.2°C 88% 2.2 mph S3.5 kmh S 4.3 mph6.9 kmh 29.99 in1015.6 mb 0.00 in0.0 mm 0.00 in0.0 mm 0.17 in4.3 mm
04:35 PM 61.0°F16.1°C 57.4°F14.1°C 88% 3.8 mph WSW6.1 kmh WSW 7.4 mph11.9 kmh 29.99 in1015.6 mb 0.00 in0.0 mm 0.00 in0.0 mm 0.17 in4.3 mm
04:40 PM 61.0°F16.1°C 57.4°F14.1°C 88% 2.2 mph SSE3.5 kmh SSE 8.5 mph13.7 kmh 29.99 in1015.6 mb 0.00 in0.0 mm 0.00 in0.0 mm 0.17 in4.3 mm
04:45 PM 60.8°F16.0°C 57.6°F14.2°C 89% 3.6 mph SSW5.8 kmh SSW 6.3 mph10.1 kmh 29.99 in1015.6 mb 0.00 in0.0 mm 0.00 in0.0 mm 0.17 in4.3 mm
04:50 PM 60.8°F16.0°C 57.2°F14.0°C 88% 4.0 mph SW6.4 kmh SW 7.4 mph11.9 kmh 29.99 in1015.6 mb 0.00 in0.0 mm 0.00 in0.0 mm 0.17 in4.3 mm
04:55 PM 60.8°F16.0°C 57.2°F14.0°C 88% 4.3 mph SW6.9 kmh SW 8.5 mph13.7 kmh 29.99 in1015.6 mb 0.00 in0.0 mm 0.00 in0.0 mm 0.17 in4.3 mm
05:00 PM 60.6°F15.9°C 57.4°F14.1°C 89% 3.6 mph WSW5.8 kmh WSW 6.3 mph10.1 kmh 29.99 in1015.6 mb 0.00 in0.0 mm 0.00 in0.0 mm 0.17 in4.3 mm
05:05 PM 60.4°F15.8°C 57.2°F14.0°C 89% 3.1 mph SW5.0 kmh SW 7.4 mph11.9 kmh 29.99 in1015.6 mb 0.00 in0.0 mm 0.00 in0.0 mm 0.17 in4.3 mm
05:10 PM 60.4°F15.8°C 57.2°F14.0°C 89% 2.7 mph WSW4.3 kmh WSW 5.4 mph8.7 kmh 29.99 in1015.6 mb 0.00 in0.0 mm 0.00 in0.0 mm 0.17 in4.3 mm
05:15 PM 60.4°F15.8°C 57.6°F14.2°C 90% 3.6 mph SW5.8 kmh SW 6.3 mph10.1 kmh 29.99 in1015.6 mb 0.00 in0.0 mm 0.00 in0.0 mm 0.17 in4.3 mm
05:20 PM 60.3°F15.7°C 57.4°F14.1°C 90% 3.8 mph SSW6.1 kmh SSW 6.3 mph10.1 kmh 29.99 in1015.6 mb 0.00 in0.0 mm 0.00 in0.0 mm 0.17 in4.3 mm
05:25 PM 60.1°F15.6°C 57.2°F14.0°C 90% 5.8 mph WSW9.3 kmh WSW 9.6 mph15.4 kmh 29.99 in1015.6 mb 0.00 in0.0 mm 0.00 in0.0 mm 0.17 in4.3 mm
05:30 PM 59.7°F15.4°C 57.0°F13.9°C 91% 2.7 mph WSW4.3 kmh WSW 6.3 mph10.1 kmh 29.99 in1015.6 mb 0.00 in0.0 mm 0.00 in0.0 mm 0.17 in4.3 mm
05:35 PM 59.7°F15.4°C 57.0°F13.9°C 91% 1.6 mph SW2.6 kmh SW 5.4 mph8.7 kmh 30.00 in1015.9 mb 0.00 in0.0 mm 0.00 in0.0 mm 0.17 in4.3 mm
05:40 PM 59.5°F15.3°C 57.2°F14.0°C 92% 4.3 mph SW6.9 kmh SW 7.4 mph11.9 kmh 30.00 in1015.9 mb 0.00 in0.0 mm 0.00 in0.0 mm 0.17 in4.3 mm
05:45 PM 59.5°F15.3°C 57.2°F14.0°C 92% 4.3 mph SSW6.9 kmh SSW 7.4 mph11.9 kmh 30.00 in1015.9 mb 0.00 in0.0 mm 0.00 in0.0 mm 0.17 in4.3 mm
05:50 PM 59.5°F15.3°C 57.2°F14.0°C 92% 3.1 mph S5.0 kmh S 8.5 mph13.7 kmh 30.00 in1015.9 mb 0.00 in0.0 mm 0.00 in0.0 mm 0.17 in4.3 mm
05:55 PM 59.4°F15.2°C 57.4°F14.1°C 93% 3.6 mph SW5.8 kmh SW 6.3 mph10.1 kmh 30.00 in1015.9 mb 0.00 in0.0 mm 0.00 in0.0 mm 0.17 in4.3 mm
06:00 PM 59.2°F15.1°C 57.2°F14.0°C 93% 6.0 mph SW9.7 kmh SW 8.5 mph13.7 kmh 30.01 in1016.3 mb 0.00 in0.0 mm 0.00 in0.0 mm 0.17 in4.3 mm
06:05 PM 59.2°F15.1°C 57.2°F14.0°C 93% 4.3 mph WSW6.9 kmh WSW 7.4 mph11.9 kmh 30.01 in1016.3 mb 0.00 in0.0 mm 0.00 in0.0 mm 0.17 in4.3 mm
06:10 PM 59.2°F15.1°C 57.2°F14.0°C 93% 2.5 mph SW4.0 kmh SW 7.4 mph11.9 kmh 30.01 in1016.3 mb 0.00 in0.0 mm 0.00 in0.0 mm 0.17 in4.3 mm
06:15 PM 59.2°F15.1°C 57.2°F14.0°C 93% 4.0 mph SW6.4 kmh SW 7.4 mph11.9 kmh 30.01 in1016.3 mb 0.00 in0.0 mm 0.00 in0.0 mm 0.17 in4.3 mm
06:20 PM 59.2°F15.1°C 57.2°F14.0°C 93% 4.3 mph SSW6.9 kmh SSW 7.4 mph11.9 kmh 30.01 in1016.3 mb 0.00 in0.0 mm 0.00 in0.0 mm 0.17 in4.3 mm
06:25 PM 59.0°F15.0°C 57.2°F14.0°C 94% 5.6 mph SW9.0 kmh SW 8.5 mph13.7 kmh 30.01 in1016.3 mb 0.00 in0.0 mm 0.00 in0.0 mm 0.17 in4.3 mm
06:30 PM 59.0°F15.0°C 57.0°F13.9°C 93% 5.1 mph SW8.2 kmh SW 10.5 mph16.9 kmh 30.01 in1016.3 mb 0.00 in0.0 mm 0.00 in0.0 mm 0.17 in4.3 mm
06:35 PM 59.0°F15.0°C 57.0°F13.9°C 93% 5.8 mph SW9.3 kmh SW 10.5 mph16.9 kmh 30.01 in1016.3 mb 0.00 in0.0 mm 0.00 in0.0 mm 0.17 in4.3 mm
06:40 PM 59.0°F15.0°C 57.0°F13.9°C 93% 6.3 mph SW10.1 kmh SW 10.5 mph16.9 kmh 30.01 in1016.3 mb 0.00 in0.0 mm 0.00 in0.0 mm 0.17 in4.3 mm
06:45 PM 59.0°F15.0°C 57.0°F13.9°C 93% 4.5 mph SW7.2 kmh SW 9.6 mph15.4 kmh 30.02 in1016.6 mb 0.00 in0.0 mm 0.00 in0.0 mm 0.17 in4.3 mm
06:50 PM 59.0°F15.0°C 57.0°F13.9°C 93% 2.9 mph SSW4.7 kmh SSW 7.4 mph11.9 kmh 30.02 in1016.6 mb 0.00 in0.0 mm 0.00 in0.0 mm 0.17 in4.3 mm
06:55 PM 59.0°F15.0°C 57.0°F13.9°C 93% 4.0 mph SW6.4 kmh SW 8.5 mph13.7 kmh 30.02 in1016.6 mb 0.00 in0.0 mm 0.00 in0.0 mm 0.17 in4.3 mm
07:00 PM 59.0°F15.0°C 57.0°F13.9°C 93% 5.4 mph SW8.7 kmh SW 9.6 mph15.4 kmh 30.03 in1016.9 mb 0.00 in0.0 mm 0.00 in0.0 mm 0.17 in4.3 mm
07:05 PM 59.0°F15.0°C 57.2°F14.0°C 94% 5.1 mph SSW8.2 kmh SSW 10.5 mph16.9 kmh 30.02 in1016.6 mb 0.00 in0.0 mm 0.00 in0.0 mm 0.17 in4.3 mm
07:10 PM 59.0°F15.0°C 57.2°F14.0°C 94% 3.4 mph W5.5 kmh W 7.4 mph11.9 kmh 30.03 in1016.9 mb 0.00 in0.0 mm 0.00 in0.0 mm 0.17 in4.3 mm
07:15 PM 58.8°F14.9°C 57.0°F13.9°C 94% 4.9 mph WSW7.9 kmh WSW 7.4 mph11.9 kmh 30.03 in1016.9 mb 0.00 in0.0 mm 0.00 in0.0 mm 0.17 in4.3 mm
07:20 PM 58.8°F14.9°C 57.0°F13.9°C 94% 3.6 mph SSW5.8 kmh SSW 6.3 mph10.1 kmh 30.03 in1016.9 mb 0.00 in0.0 mm 0.00 in0.0 mm 0.17 in4.3 mm
07:25 PM 59.0°F15.0°C 57.2°F14.0°C 94% 3.8 mph SSW6.1 kmh SSW 6.3 mph10.1 kmh 30.03 in1016.9 mb 0.00 in0.0 mm 0.00 in0.0 mm 0.17 in4.3 mm
07:30 PM 59.0°F15.0°C 57.2°F14.0°C 94% 2.5 mph SW4.0 kmh SW 6.3 mph10.1 kmh 30.03 in1016.9 mb 0.00 in0.0 mm 0.00 in0.0 mm 0.17 in4.3 mm
07:35 PM 59.0°F15.0°C 57.2°F14.0°C 94% 3.8 mph SW6.1 kmh SW 8.5 mph13.7 kmh 30.03 in1016.9 mb 0.00 in0.0 mm 0.00 in0.0 mm 0.17 in4.3 mm
07:40 PM 58.8°F14.9°C 57.0°F13.9°C 94% 4.3 mph SW6.9 kmh SW 9.6 mph15.4 kmh 30.03 in1016.9 mb 0.00 in0.0 mm 0.00 in0.0 mm 0.17 in4.3 mm
07:45 PM 58.8°F14.9°C 57.0°F13.9°C 94% 5.6 mph SW9.0 kmh SW 10.5 mph16.9 kmh 30.04 in1017.3 mb 0.00 in0.0 mm 0.00 in0.0 mm 0.17 in4.3 mm
07:50 PM 58.8°F14.9°C 57.0°F13.9°C 94% 3.8 mph SW6.1 kmh SW 6.3 mph10.1 kmh 30.04 in1017.3 mb 0.00 in0.0 mm 0.00 in0.0 mm 0.17 in4.3 mm
07:55 PM 58.8°F14.9°C 57.0°F13.9°C 94% 4.5 mph S7.2 kmh S 9.6 mph15.4 kmh 30.04 in1017.3 mb 0.00 in0.0 mm 0.00 in0.0 mm 0.17 in4.3 mm
08:00 PM 58.8°F14.9°C 57.0°F13.9°C 94% 2.9 mph SSW4.7 kmh SSW 7.4 mph11.9 kmh 30.04 in1017.3 mb 0.00 in0.0 mm 0.00 in0.0 mm 0.17 in4.3 mm
08:05 PM 58.8°F14.9°C 57.0°F13.9°C 94% 4.3 mph SSW6.9 kmh SSW 8.5 mph13.7 kmh 30.04 in1017.3 mb 0.00 in0.0 mm 0.00 in0.0 mm 0.17 in4.3 mm
08:10 PM 58.6°F14.8°C 56.8°F13.8°C 94% 4.3 mph S6.9 kmh S 9.6 mph15.4 kmh 30.04 in1017.3 mb 0.00 in0.0 mm 0.00 in0.0 mm 0.17 in4.3 mm
08:15 PM 58.6°F14.8°C 56.8°F13.8°C 94% 3.8 mph SE6.1 kmh SE 8.5 mph13.7 kmh 30.05 in1017.6 mb 0.00 in0.0 mm 0.00 in0.0 mm 0.17 in4.3 mm
08:20 PM 58.6°F14.8°C 57.2°F14.0°C 95% 3.4 mph SW5.5 kmh SW 7.4 mph11.9 kmh 30.05 in1017.6 mb 0.00 in0.0 mm 0.00 in0.0 mm 0.17 in4.3 mm
08:25 PM 58.6°F14.8°C 57.2°F14.0°C 95% 3.1 mph S5.0 kmh S 6.3 mph10.1 kmh 30.05 in1017.6 mb 0.00 in0.0 mm 0.00 in0.0 mm 0.17 in4.3 mm
08:30 PM 58.6°F14.8°C 57.2°F14.0°C 95% 4.0 mph SW6.4 kmh SW 6.3 mph10.1 kmh 30.05 in1017.6 mb 0.00 in0.0 mm 0.00 in0.0 mm 0.17 in4.3 mm
08:35 PM 58.6°F14.8°C 57.2°F14.0°C 95% 3.8 mph SW6.1 kmh SW 10.5 mph16.9 kmh 30.05 in1017.6 mb 0.00 in0.0 mm 0.00 in0.0 mm 0.17 in4.3 mm
08:40 PM 58.6°F14.8°C 57.2°F14.0°C 95% 4.7 mph SW7.6 kmh SW 8.5 mph13.7 kmh 30.05 in1017.6 mb 0.00 in0.0 mm 0.00 in0.0 mm 0.17 in4.3 mm
08:45 PM 58.6°F14.8°C 57.2°F14.0°C 95% 4.7 mph S7.6 kmh S 7.4 mph11.9 kmh 30.06 in1017.9 mb 0.00 in0.0 mm 0.00 in0.0 mm 0.17 in4.3 mm
08:50 PM 58.6°F14.8°C 57.2°F14.0°C 95% 4.9 mph SW7.9 kmh SW 7.4 mph11.9 kmh 30.06 in1017.9 mb 0.00 in0.0 mm 0.00 in0.0 mm 0.17 in4.3 mm
08:55 PM 58.6°F14.8°C 57.2°F14.0°C 95% 3.4 mph SW5.5 kmh SW 7.4 mph11.9 kmh 30.06 in1017.9 mb 0.00 in0.0 mm 0.00 in0.0 mm 0.17 in4.3 mm
09:00 PM 58.6°F14.8°C 57.2°F14.0°C 95% 4.3 mph SSW6.9 kmh SSW 8.5 mph13.7 kmh 30.06 in1017.9 mb 0.00 in0.0 mm 0.00 in0.0 mm 0.17 in4.3 mm
09:05 PM 58.6°F14.8°C 57.2°F14.0°C 95% 5.1 mph SW8.2 kmh SW 8.5 mph13.7 kmh 30.06 in1017.9 mb 0.00 in0.0 mm 0.00 in0.0 mm 0.17 in4.3 mm
09:10 PM 58.6°F14.8°C 57.2°F14.0°C 95% 4.5 mph SSW7.2 kmh SSW 10.5 mph16.9 kmh 30.06 in1017.9 mb 0.00 in0.0 mm 0.00 in0.0 mm 0.17 in4.3 mm
09:15 PM 58.6°F14.8°C 57.2°F14.0°C 95% 2.9 mph SW4.7 kmh SW 7.4 mph11.9 kmh 30.06 in1017.9 mb 0.00 in0.0 mm 0.00 in0.0 mm 0.17 in4.3 mm
09:20 PM 58.6°F14.8°C 57.2°F14.0°C 95% 2.5 mph SSW4.0 kmh SSW 5.4 mph8.7 kmh 30.06 in1017.9 mb 0.00 in0.0 mm 0.00 in0.0 mm 0.17 in4.3 mm
09:25 PM 58.6°F14.8°C 57.2°F14.0°C 95% 4.3 mph SW6.9 kmh SW 6.3 mph10.1 kmh 30.06 in1017.9 mb 0.00 in0.0 mm 0.00 in0.0 mm 0.17 in4.3 mm
09:30 PM 58.6°F14.8°C 57.2°F14.0°C 95% 4.3 mph S6.9 kmh S 8.5 mph13.7 kmh 30.06 in1017.9 mb 0.00 in0.0 mm 0.00 in0.0 mm 0.17 in4.3 mm
09:35 PM 58.6°F14.8°C 57.2°F14.0°C 95% 3.6 mph SW5.8 kmh SW 6.3 mph10.1 kmh 30.06 in1017.9 mb 0.00 in0.0 mm 0.00 in0.0 mm 0.17 in4.3 mm
09:40 PM 58.6°F14.8°C 57.2°F14.0°C 95% 4.3 mph SW6.9 kmh SW 6.3 mph10.1 kmh 30.06 in1017.9 mb 0.00 in0.0 mm 0.00 in0.0 mm 0.17 in4.3 mm
09:45 PM 58.6°F14.8°C 57.6°F14.2°C 96% 1.3 mph SSW2.1 kmh SSW 4.3 mph6.9 kmh 30.06 in1017.9 mb 0.00 in0.0 mm 0.00 in0.0 mm 0.17 in4.3 mm
09:50 PM 58.6°F14.8°C 57.6°F14.2°C 96% 2.5 mph SW4.0 kmh SW 4.3 mph6.9 kmh 30.06 in1017.9 mb 0.00 in0.0 mm 0.00 in0.0 mm 0.17 in4.3 mm
09:55 PM 58.6°F14.8°C 57.6°F14.2°C 96% 2.9 mph SSW4.7 kmh SSW 5.4 mph8.7 kmh 30.06 in1017.9 mb 0.00 in0.0 mm 0.00 in0.0 mm 0.17 in4.3 mm
10:00 PM 58.5°F14.7°C 57.4°F14.1°C 96% 3.6 mph SW5.8 kmh SW 5.4 mph8.7 kmh 30.06 in1017.9 mb 0.00 in0.0 mm 0.00 in0.0 mm 0.17 in4.3 mm
10:05 PM 58.5°F14.7°C 57.4°F14.1°C 96% 2.2 mph WSW3.5 kmh WSW 5.4 mph8.7 kmh 30.06 in1017.9 mb 0.00 in0.0 mm 0.00 in0.0 mm 0.17 in4.3 mm
10:10 PM 58.5°F14.7°C 57.4°F14.1°C 96% 1.8 mph WSW2.9 kmh WSW 3.1 mph5.0 kmh 30.06 in1017.9 mb 0.00 in0.0 mm 0.00 in0.0 mm 0.17 in4.3 mm
10:15 PM 58.5°F14.7°C 57.4°F14.1°C 96% 0.4 mph SW0.6 kmh SW 2.0 mph3.2 kmh 30.05 in1017.6 mb 0.00 in0.0 mm 0.00 in0.0 mm 0.17 in4.3 mm
10:20 PM 58.5°F14.7°C 57.4°F14.1°C 96% 0.7 mph SW1.1 kmh SW 3.1 mph5.0 kmh 30.05 in1017.6 mb 0.00 in0.0 mm 0.00 in0.0 mm 0.17 in4.3 mm
10:25 PM 58.5°F14.7°C 57.4°F14.1°C 96% 0.4 mph SW0.6 kmh SW 3.1 mph5.0 kmh 30.05 in1017.6 mb 0.00 in0.0 mm 0.00 in0.0 mm 0.17 in4.3 mm
10:30 PM 58.5°F14.7°C 57.4°F14.1°C 96% 2.0 mph SW3.2 kmh SW 3.1 mph5.0 kmh 30.05 in1017.6 mb 0.00 in0.0 mm 0.00 in0.0 mm 0.17 in4.3 mm
10:35 PM 58.5°F14.7°C 57.4°F14.1°C 96% 2.5 mph SSW4.0 kmh SSW 5.4 mph8.7 kmh 30.05 in1017.6 mb 0.00 in0.0 mm 0.00 in0.0 mm 0.17 in4.3 mm
10:40 PM 58.5°F14.7°C 57.4°F14.1°C 96% 0.9 mph SW1.4 kmh SW 3.1 mph5.0 kmh 30.04 in1017.3 mb 0.00 in0.0 mm 0.00 in0.0 mm 0.17 in4.3 mm
10:45 PM 58.5°F14.7°C 57.4°F14.1°C 96% Calm Calm 2.0 mph3.2 kmh 30.05 in1017.6 mb 0.00 in0.0 mm 0.00 in0.0 mm 0.17 in4.3 mm
10:50 PM 58.5°F14.7°C 57.4°F14.1°C 96% Calm Calm 1.1 mph1.8 kmh 30.05 in1017.6 mb 0.00 in0.0 mm 0.00 in0.0 mm 0.17 in4.3 mm
10:55 PM 58.3°F14.6°C 57.2°F14.0°C 96% 0.4 mph SSW0.6 kmh SSW 3.1 mph5.0 kmh 30.05 in1017.6 mb 0.00 in0.0 mm 0.00 in0.0 mm 0.17 in4.3 mm
11:00 PM 58.3°F14.6°C 57.2°F14.0°C 96% 0.2 mph SW0.3 kmh SW 3.1 mph5.0 kmh 30.05 in1017.6 mb 0.00 in0.0 mm 0.00 in0.0 mm 0.17 in4.3 mm
11:05 PM 58.3°F14.6°C 57.2°F14.0°C 96% 0.7 mph SSW1.1 kmh SSW 3.1 mph5.0 kmh 30.04 in1017.3 mb 0.00 in0.0 mm 0.00 in0.0 mm 0.17 in4.3 mm
11:10 PM 58.3°F14.6°C 57.2°F14.0°C 96% 0.7 mph SSE1.1 kmh SSE 4.3 mph6.9 kmh 30.04 in1017.3 mb 0.00 in0.0 mm 0.00 in0.0 mm 0.17 in4.3 mm
11:15 PM 58.3°F14.6°C 57.2°F14.0°C 96% 0.4 mph SW0.6 kmh SW 3.1 mph5.0 kmh 30.04 in1017.3 mb 0.00 in0.0 mm 0.00 in0.0 mm 0.17 in4.3 mm
11:20 PM 58.3°F14.6°C 57.2°F14.0°C 96% 1.8 mph SSW2.9 kmh SSW 4.3 mph6.9 kmh 30.04 in1017.3 mb 0.00 in0.0 mm 0.00 in0.0 mm 0.17 in4.3 mm
11:25 PM 58.1°F14.5°C 57.0°F13.9°C 96% 1.8 mph W2.9 kmh W 5.4 mph8.7 kmh 30.04 in1017.3 mb 0.00 in0.0 mm 0.00 in0.0 mm 0.17 in4.3 mm
11:30 PM 57.9°F14.4°C 56.8°F13.8°C 96% 0.2 mph WSW0.3 kmh WSW 5.4 mph8.7 kmh 30.04 in1017.3 mb 0.00 in0.0 mm 0.00 in0.0 mm 0.17 in4.3 mm
11:35 PM 57.9°F14.4°C 56.8°F13.8°C 96% 0.9 mph WSW1.4 kmh WSW 2.0 mph3.2 kmh 30.04 in1017.3 mb 0.00 in0.0 mm 0.00 in0.0 mm 0.17 in4.3 mm
11:40 PM 57.9°F14.4°C 56.8°F13.8°C 96% Calm Calm 1.1 mph1.8 kmh 30.03 in1016.9 mb 0.00 in0.0 mm 0.00 in0.0 mm 0.17 in4.3 mm
11:45 PM 57.9°F14.4°C 56.8°F13.8°C 96% Calm Calm -- 30.03 in1016.9 mb 0.00 in0.0 mm 0.00 in0.0 mm 0.17 in4.3 mm
11:50 PM 57.9°F14.4°C 56.8°F13.8°C 96% Calm Calm -- 30.03 in1016.9 mb 0.00 in0.0 mm 0.00 in0.0 mm 0.17 in4.3 mm
11:55 PM 57.9°F14.4°C 56.8°F13.8°C 96% Calm Calm -- 30.03 in1016.9 mb 0.00 in0.0 mm 0.00 in0.0 mm 0.17 in4.3 mm